Rhinelander Oneida County Airport
KRHI : now visible

Airfield :











YOU CAN JOIN US ON...

 
LOGIN :

Register | Disclaimer

   EN    FR    IT 

 









Legend :    VFR   Marginal VFR   IFR   Intensive IFR   Very Intensive IFR
Visi :
Ceiling :
>= 8 km
>= 3000ft
5 to 8 km
1000 to 3000 ft
1500m to 5 km
500 to 1000 ft
800 to 1500m
200 to 500 ft
< 800m
< 200 ft
Symbols :   Thunderstorms  Fog  Heavy snow  Heavy precipitations  Wind > 20 kt






- Airport Elevation : 1624 ft
- IATA code : RHI


KRHI - Rhinelander Oneida County

CURRENT METAR :
  • 010153Z AUTO 06005KT 10SM OVC023 02/M03 A3008 RMK AO2 SLP204 T00171028

EXPIRED METARs :
  • 010053Z AUTO 03003KT 10SM OVC024 02/M03 A3007 RMK AO2 SLP202 T00221033
  • 312353Z AUTO 04004KT 10SM OVC026 02/M03 A3008 RMK AO2 SLP204 T00221033 10039 20022 55001

TAF KRHI
Valid from the 01 at 00:00 until the 02 at 00:00 UTC


312334Z 0100/0124 05004KT P6SM OVC028
FM010500 VRB03KT P6SM OVC016
FM011500 VRB03KT P6SM BKN023
FM011800 13006KT P6SM BKN035



MET'MAP, your aeronautical weather chart ! - Copyright ORBIFLY December 2007 - Disclaimer

ORBIFLY MET'MAP TEAM :

Programming & Development : Alexandra Zaïnal
Concept & original design : Baudouin d'Aumeries
Assistance for programming : Marc-Olivier Méhu
Technical & hardware support : Manuel Goepfert

Contact : metmap@orbifly.com




SOURCES & CREDITS :

   NOAA       Earth
Advisory